Terminal Aerodrome Forecast
Issued by NWS

Home | Current Version | Previous Version | Text Only | Print | Product List | Glossary On
Versions: 1 2 3 4 5 6 7 8 9 10 11 12 13 14 15 16
000
FTUS44 KJAN 271120
TAFGTR
TAF
KGTR 271120Z 2712/2812 18003KT 3SM BR OVC003
     FM271500 20006KT P6SM SCT035
     FM272000 18006KT P6SM VCTS BKN050CB
     FM280600 16004KT P6SM BKN250=

USA.gov is the U.S. government's official web portal to all federal, state and local government web resources and services.